MMCS/CJS METAR and TAF weather

Enter ICAO airport designator
Station Type Date Time Source
MMCS METAR 2024/05/28 22:40 UTC NOAA

MMCS 282240Z 17006KT 10SM FEW040 36/M06 A2998 RMK 8/100


Station Type Date Time Source
MMCS Decoded METAR 2024/05/28 22:40 UTC NOAA

Ciudad Juarez International , Mexico (MMCS) 31-38N 106-26W
May 28, 2024 - 06:40 PM EDT / 2024.05.28 2240 UTC
Wind: from the S (170 degrees) at 7 MPH (6 KT):0
Visibility: 10 mile(s):0
Sky conditions: mostly clear
Temperature: 96 F (36 C)
Dew Point: 21 F (-6 C)
Relative Humidity: 6%
Pressure (altimeter): 29.98 in. Hg (1015 hPa)
ob: MMCS 282240Z 17006KT 10SM FEW040 36/M06 A2998 RMK 8/100
cycle: 22

Station Type Date Time Source
MMCS TAF 2024/05/28 18:51 UTC NOAA